EDDL Airport Information

Runway Information
Runway 05L Length 8858 ft width 148 ft
Elevation 116 ft Threshold 984 ft Heading 53
Runway 23R Length 8858 ft Width 148 ft
Elevation 124 ft Threshold 984 ft Heading 233
Runway 05R Length 9842 ft width 148 ft
Elevation 121 ft Threshold 984 ft Heading 53
Runway 23L Length 9842 ft Width 148 ft
Elevation 138 ft Threshold 984 ft Heading 233
Airport Frequencies
Type ACC Name LANGEN RAD Frequency 128.55 MHZ
Type APP Name DIR Frequency 128.65 MHZ
Type ATIS Name ATIS Frequency 123.775 MHZ
Type CLD Name CLNC DEL Frequency 121.775 MHZ
Type GND Name GND Frequency 121.9 MHZ
Type INFO Name LANGEN INF Frequency 129.875 MHZ
Type MISC Name DE ICING Frequency 135.225 MHZ
Type TWR Name TWR Frequency 118.3 MHZ
Airport Navaids
Type VOR-DME Name Dusseldorf Frequency 115150 KHZ
Airport Weather Information & NOTAM
ADDS - METARS form results

(0946 UTC 16 November 2018)
Data provider http://aviationweather.gov/metar/data/
 
METAR text: EDDL 160920Z 15011KT 110V180 CAVOK 07/04 Q1028 NOSIG
Conditions at: EDDL (DUESSELDORF , DE) observed 0920 UTC 16 November 2018
Temperature: 7.0°C (45°F)
Dewpoint: 4.0°C (39°F) [RH = 81%]
Pressure (altimeter): 30.35 inches Hg (1028.0 mb)
Winds: from the SSE (150 degrees) at 13 MPH (11 knots; 5.7 m/s)
Visibility: 6 or more miles (10+ km)
Ceiling: ceiling and visibility are OK
Clouds: unknown
Weather: no significant weather observed at this time

METAR text: EDDL 160850Z 15009KT CAVOK 07/03 Q1028 NOSIG
Conditions at: EDDL (DUESSELDORF , DE) observed 0850 UTC 16 November 2018
Temperature: 7.0°C (45°F)
Dewpoint: 3.0°C (37°F) [RH = 76%]
Pressure (altimeter): 30.35 inches Hg (1028.0 mb)
Winds: from the SSE (150 degrees) at 10 MPH (9 knots; 4.6 m/s)
Visibility: 6 or more miles (10+ km)
Ceiling: ceiling and visibility are OK
Clouds: unknown
Weather: no significant weather observed at this time

Forecast for: EDDL (DUESSELDORF , DE)
Text: TAF EDDL 160500Z 1606/1712 15008KT CAVOK
Forecast period: 0600 to 1500 UTC 16 November 2018
Forecast type: FROM: standard forecast or significant change
Winds: from the SSE (150 degrees) at 9 MPH (8 knots; 4.1 m/s)
Visibility: 6 or more miles 10+ km)
Ceiling: unknown
Clouds: missing
Weather: NSW  (no significant weather)
Text: BECMG 1615/1617 09005KT
Forecast period: 1500 UTC 16 November 2018 to 0900 UTC 17 November 2018
Forecast type: BECOMING: Conditions expected to become as follows by 1700 UTC 16 November 2018
Winds: from the E (90 degrees) at 6 MPH (5 knots; 2.6 m/s)
Visibility: 6 or more miles 10+ km)
Ceiling: unknown
Clouds: missing
Weather: NSW  (no significant weather)
Text: BECMG 1709/1711 09010KT
Forecast period: 0900 to 1200 UTC 17 November 2018
Forecast type: BECOMING: Conditions expected to become as follows by 1100 UTC 17 November 2018
Winds: from the E (90 degrees) at 12 MPH (10 knots; 5.1 m/s)
Visibility: 6 or more miles 10+ km)
Ceiling: unknown
Clouds: missing
Weather: NSW  (no significant weather)